createdAt,value
2022-09-21T00:00:41.434Z,1015.755
2022-09-21T00:05:53.898Z,1015.818
2022-09-21T00:11:06.192Z,1015.879
2022-09-21T00:16:18.822Z,1015.901
2022-09-21T00:21:31.305Z,1015.918
2022-09-21T00:26:43.671Z,1015.867
2022-09-21T00:31:56.040Z,1015.826
2022-09-21T00:37:08.582Z,1015.878
2022-09-21T00:42:20.959Z,1015.9
2022-09-21T00:47:33.168Z,1015.939
2022-09-21T00:52:45.508Z,1015.979
2022-09-21T00:57:57.898Z,1015.981
2022-09-21T01:03:10.228Z,1015.997
2022-09-21T01:08:22.460Z,1015.991
2022-09-21T01:13:34.752Z,1016.056
2022-09-21T01:18:47.183Z,1016.005
2022-09-21T01:23:59.494Z,1016.026
2022-09-21T01:29:11.830Z,1016.085
2022-09-21T01:34:24.008Z,1016.104
2022-09-21T01:39:36.327Z,1016.122
2022-09-21T01:44:48.605Z,1016.158
2022-09-21T01:50:00.947Z,1016.098
2022-09-21T01:55:13.584Z,1016.129
2022-09-21T02:00:26.717Z,1016.187
2022-09-21T02:05:39.030Z,1016.148
2022-09-21T02:10:51.573Z,1016.106
2022-09-21T02:16:03.828Z,1016.083
2022-09-21T02:21:16.250Z,1016.123
2022-09-21T02:26:28.565Z,1016.145
2022-09-21T02:31:41.192Z,1016.129
2022-09-21T02:36:53.485Z,1016.143
2022-09-21T02:42:05.849Z,1016.206
2022-09-21T02:47:18.036Z,1016.206
2022-09-21T02:52:30.457Z,1016.203
2022-09-21T02:57:43.209Z,1016.301
2022-09-21T03:02:55.529Z,1016.354
2022-09-21T03:08:07.822Z,1016.397
2022-09-21T03:13:20.333Z,1016.386
2022-09-21T03:18:32.705Z,1016.4
2022-09-21T03:23:45.019Z,1016.419
2022-09-21T03:28:57.629Z,1016.378
2022-09-21T03:34:09.968Z,1016.448
2022-09-21T03:39:22.487Z,1016.454
2022-09-21T03:44:34.746Z,1016.429
2022-09-21T03:49:46.999Z,1016.459
2022-09-21T03:54:59.551Z,1016.442
2022-09-21T04:00:11.778Z,1016.48
2022-09-21T04:05:24.180Z,1016.44
2022-09-21T04:10:36.603Z,1016.542
2022-09-21T04:15:49.197Z,1016.566
2022-09-21T04:21:01.357Z,1016.552
2022-09-21T04:26:13.788Z,1016.639
2022-09-21T04:31:26.432Z,1016.653
2022-09-21T04:36:38.741Z,1016.605
2022-09-21T04:41:51.139Z,1016.587
2022-09-21T04:47:03.350Z,1016.617
2022-09-21T04:52:18.945Z,1016.631
2022-09-21T04:57:28.158Z,1016.643
2022-09-21T05:02:40.710Z,1016.731
2022-09-21T05:07:53.031Z,1016.753
2022-09-21T05:13:05.271Z,1016.841
2022-09-21T05:18:17.880Z,1016.9
2022-09-21T05:23:30.060Z,1016.937
2022-09-21T05:28:42.503Z,1016.925
2022-09-21T05:33:54.970Z,1017.011
2022-09-21T05:39:07.354Z,1017.036
2022-09-21T05:44:19.782Z,1017.092
2022-09-21T05:49:32.107Z,1017.107
2022-09-21T05:54:44.618Z,1017.111
2022-09-21T05:59:57.157Z,1017.168
2022-09-21T06:05:09.602Z,1017.124
2022-09-21T06:10:22.225Z,1017.155
2022-09-21T06:15:34.539Z,1017.117
2022-09-21T06:20:46.893Z,1017.173
2022-09-21T06:25:59.183Z,1017.189
2022-09-21T06:31:11.423Z,1017.188
2022-09-21T06:36:23.828Z,1017.263
2022-09-21T06:41:36.037Z,1017.299
2022-09-21T06:46:48.448Z,1017.395
2022-09-21T06:52:04.029Z,1017.443
2022-09-21T06:57:16.378Z,1017.44
2022-09-21T07:02:28.818Z,1017.453
2022-09-21T07:07:41.247Z,1017.514
2022-09-21T07:12:53.930Z,1017.576
2022-09-21T07:18:06.361Z,1017.654
2022-09-21T07:23:18.728Z,1017.7
2022-09-21T07:28:31.053Z,1017.703
2022-09-21T07:33:43.364Z,1017.729
2022-09-21T07:38:55.833Z,1017.679
2022-09-21T07:44:08.183Z,1017.666
2022-09-21T07:49:20.740Z,1017.678
2022-09-21T07:54:33.297Z,1017.688
2022-09-21T07:59:45.698Z,1017.77
2022-09-21T08:04:58.129Z,1017.821
2022-09-21T08:10:10.309Z,1017.802
2022-09-21T08:15:44.326Z,1017.723
2022-09-21T08:20:35.212Z,1017.756
2022-09-21T08:25:47.761Z,1017.809
2022-09-21T08:31:00.409Z,1017.886
2022-09-21T08:36:12.673Z,1017.84
2022-09-21T08:41:25.252Z,1017.881
2022-09-21T08:46:37.589Z,1017.885
2022-09-21T08:51:50.272Z,1017.943
2022-09-21T08:57:05.617Z,1017.931
2022-09-21T09:02:15.358Z,1017.986
2022-09-21T09:07:27.734Z,1018.016
2022-09-21T09:17:53.165Z,1017.993
2022-09-21T09:23:05.425Z,1018.023
2022-09-21T09:28:17.855Z,1018.056
2022-09-21T09:33:30.260Z,1018.045
2022-09-21T09:38:42.502Z,1018.034
2022-09-21T09:43:54.920Z,1018.024
2022-09-21T09:49:07.437Z,1018.057
2022-09-21T09:54:20.082Z,1018.023
2022-09-21T09:59:32.720Z,1018.044
2022-09-21T10:04:45.575Z,1018.063
2022-09-21T10:09:57.965Z,1018.052
2022-09-21T10:15:10.413Z,1018.019
2022-09-21T10:20:22.863Z,1018
2022-09-21T10:25:39.472Z,1017.99
2022-09-21T10:30:47.611Z,1018.009
2022-09-21T10:35:59.944Z,1017.982
2022-09-21T10:41:12.232Z,1017.955
2022-09-21T10:46:24.715Z,1017.933
2022-09-21T10:51:37.099Z,1017.954
2022-09-21T10:56:49.556Z,1017.877
2022-09-21T11:02:01.893Z,1017.76
2022-09-21T11:07:14.284Z,1017.844
2022-09-21T11:12:26.488Z,1017.8
2022-09-21T11:17:38.691Z,1017.751
2022-09-21T11:22:54.242Z,1017.768
2022-09-21T11:28:03.716Z,1017.748
2022-09-21T11:33:16.186Z,1017.773
2022-09-21T11:38:32.181Z,1017.767
2022-09-21T11:43:41.235Z,1017.835
2022-09-21T11:48:53.361Z,1017.758
2022-09-21T11:54:05.597Z,1017.783
2022-09-21T11:59:17.795Z,1017.649
2022-09-21T12:04:29.976Z,1017.579
2022-09-21T12:09:42.590Z,1017.57
2022-09-21T12:14:54.816Z,1017.609
2022-09-21T12:20:07.344Z,1017.571
2022-09-21T12:25:19.909Z,1017.479
2022-09-21T12:30:32.138Z,1017.575
2022-09-21T12:35:44.460Z,1017.623
2022-09-21T12:40:56.701Z,1017.515
2022-09-21T12:46:09.090Z,1017.467
2022-09-21T12:51:21.218Z,1017.432
2022-09-21T12:56:33.777Z,1017.49
2022-09-21T13:01:46.358Z,1017.452
2022-09-21T13:06:58.896Z,1017.474
2022-09-21T13:12:11.237Z,1017.505
2022-09-21T13:17:23.358Z,1017.4
2022-09-21T13:22:35.782Z,1017.398
2022-09-21T13:27:48.216Z,1017.392
2022-09-21T13:33:00.431Z,1017.407
2022-09-21T13:38:12.652Z,1017.431
2022-09-21T13:43:24.926Z,1017.337
2022-09-21T13:48:37.105Z,1017.262
2022-09-21T13:53:49.304Z,1017.246
2022-09-21T13:59:01.733Z,1017.258
2022-09-21T14:04:14.786Z,1017.197
2022-09-21T14:09:27.516Z,1017.213
2022-09-21T14:14:40.144Z,1017.179
2022-09-21T14:19:52.879Z,1017.204
2022-09-21T14:25:05.370Z,1017.203
2022-09-21T14:30:17.870Z,1017.027
2022-09-21T14:35:33.516Z,1017.123
2022-09-21T14:40:42.663Z,1017.035
2022-09-21T14:45:55.047Z,1016.986
2022-09-21T14:51:07.419Z,1016.949
2022-09-21T14:56:19.744Z,1016.977
2022-09-21T15:01:31.794Z,1016.862
2022-09-21T15:06:43.928Z,1016.866
2022-09-21T15:11:55.999Z,1016.865
2022-09-21T15:17:08.260Z,1016.792
2022-09-21T15:22:20.960Z,1016.776
2022-09-21T15:27:33.789Z,1016.733
2022-09-21T15:32:46.124Z,1016.78
2022-09-21T15:37:58.736Z,1016.764
2022-09-21T15:43:11.055Z,1016.709
2022-09-21T15:48:23.403Z,1016.802
2022-09-21T15:53:35.825Z,1016.605
2022-09-21T15:58:48.543Z,1016.654
2022-09-21T16:04:01.259Z,1016.751
2022-09-21T16:09:13.712Z,1016.889
2022-09-21T16:14:26.467Z,1016.985
2022-09-21T16:19:39.007Z,1017.014
2022-09-21T16:24:51.403Z,1017.099
2022-09-21T16:30:03.807Z,1017.021
2022-09-21T16:35:16.574Z,1017.054
2022-09-21T16:40:28.911Z,1017.156
2022-09-21T16:45:41.008Z,1017.107
2022-09-21T16:50:53.773Z,1016.991
2022-09-21T16:56:06.154Z,1017.059
2022-09-21T17:01:18.108Z,1016.909
2022-09-21T17:06:30.317Z,1016.824
2022-09-21T17:11:42.705Z,1016.859
2022-09-21T17:16:55.040Z,1016.892
2022-09-21T17:22:07.283Z,1016.889
2022-09-21T17:27:19.478Z,1016.836
2022-09-21T17:32:35.229Z,1016.858
2022-09-21T17:37:44.044Z,1016.864
2022-09-21T17:42:56.239Z,1016.806
2022-09-21T17:48:08.748Z,1016.81
2022-09-21T17:53:21.105Z,1016.867
2022-09-21T17:58:33.416Z,1016.88
2022-09-21T18:03:45.843Z,1016.928
2022-09-21T18:08:58.261Z,1016.938
2022-09-21T18:14:10.489Z,1016.95
2022-09-21T18:19:23.105Z,1016.966
2022-09-21T18:24:35.663Z,1017.047
2022-09-21T18:29:47.724Z,1017.034
2022-09-21T18:34:59.976Z,1017.034
2022-09-21T18:40:12.357Z,1017.029
2022-09-21T18:45:24.747Z,1017.12
2022-09-21T18:50:36.860Z,1017.078
2022-09-21T18:55:49.309Z,1017.036
2022-09-21T19:01:02.015Z,1017.062
2022-09-21T19:06:14.345Z,1017.062
2022-09-21T19:11:26.665Z,1017.117
2022-09-21T19:16:39.202Z,1017.197
2022-09-21T19:21:51.719Z,1017.143
2022-09-21T19:27:03.959Z,1017.154
2022-09-21T19:32:16.474Z,1017.182
2022-09-21T19:37:29.099Z,1017.251
2022-09-21T19:42:41.451Z,1017.283
2022-09-21T19:47:53.657Z,1017.256
2022-09-21T19:53:06.058Z,1017.213
2022-09-21T19:58:18.407Z,1017.25
2022-09-21T20:03:31.670Z,1017.246
2022-09-21T20:08:43.100Z,1017.258
2022-09-21T20:13:55.380Z,1017.244
2022-09-21T20:19:07.624Z,1017.239
2022-09-21T20:24:20.201Z,1017.272
2022-09-21T20:29:32.697Z,1017.326
2022-09-21T20:34:44.722Z,1017.286
2022-09-21T20:39:57.050Z,1017.286
2022-09-21T20:45:09.346Z,1017.279
2022-09-21T20:50:21.501Z,1017.225
2022-09-21T20:55:34.057Z,1017.265
2022-09-21T21:00:46.381Z,1017.228
2022-09-21T21:05:58.696Z,1017.263
2022-09-21T21:11:10.869Z,1017.285
2022-09-21T21:16:23.341Z,1017.299
2022-09-21T21:21:35.861Z,1017.312
2022-09-21T21:27:01.622Z,1017.315
2022-09-21T21:32:00.612Z,1017.372
2022-09-21T21:37:12.845Z,1017.349
2022-09-21T21:42:25.262Z,1017.326
2022-09-21T21:47:40.098Z,1017.278
2022-09-21T21:52:49.926Z,1017.309
2022-09-21T21:58:02.258Z,1017.306
2022-09-21T22:03:14.675Z,1017.301
2022-09-21T22:08:27.213Z,1017.232
2022-09-21T22:13:39.709Z,1017.146
2022-09-21T22:18:52.167Z,1017.15
2022-09-21T22:24:04.420Z,1017.15
2022-09-21T22:29:16.796Z,1017.134
2022-09-21T22:34:29.086Z,1017.156
2022-09-21T22:39:41.437Z,1017.197
2022-09-21T22:44:54.160Z,1017.203
2022-09-21T22:50:06.515Z,1017.209
2022-09-21T22:55:18.822Z,1017.216
2022-09-21T23:00:31.142Z,1017.216
2022-09-21T23:05:43.563Z,1017.232
2022-09-21T23:10:56.062Z,1017.258
2022-09-21T23:16:08.567Z,1017.21
2022-09-21T23:21:20.935Z,1017.192
2022-09-21T23:26:33.374Z,1017.147
2022-09-21T23:31:46.475Z,1017.134
2022-09-21T23:36:58.486Z,1017.152
2022-09-21T23:42:10.758Z,1017.161
2022-09-21T23:47:23.359Z,1017.162
2022-09-21T23:52:35.913Z,1017.169
2022-09-21T23:57:48.246Z,1017.113
